sensor_id;sensor_type;location;lat;lon;timestamp;P1;durP1;ratioP1;P2;durP2;ratioP2
26696;SDS011;14312;52.614;13.496;2023-03-01T00:02:35;13.80;;;9.23;;
26696;SDS011;14312;52.614;13.496;2023-03-01T00:05:21;14.40;;;9.10;;
26696;SDS011;14312;52.614;13.496;2023-03-01T00:08:07;14.40;;;9.53;;
26696;SDS011;14312;52.614;13.496;2023-03-01T00:10:59;12.60;;;8.33;;
26696;SDS011;14312;52.614;13.496;2023-03-01T00:13:54;11.40;;;7.90;;
26696;SDS011;14312;52.614;13.496;2023-03-01T00:16:43;13.67;;;8.73;;
26696;SDS011;14312;52.614;13.496;2023-03-01T00:19:29;12.60;;;8.53;;
26696;SDS011;14312;52.614;13.496;2023-03-01T00:22:15;12.40;;;7.87;;
26696;SDS011;14312;52.614;13.496;2023-03-01T00:25:01;11.23;;;7.47;;
26696;SDS011;14312;52.614;13.496;2023-03-01T00:27:48;11.50;;;7.73;;
26696;SDS011;14312;52.614;13.496;2023-03-01T00:30:34;12.53;;;7.90;;
26696;SDS011;14312;52.614;13.496;2023-03-01T00:33:20;12.43;;;7.27;;
26696;SDS011;14312;52.614;13.496;2023-03-01T00:36:07;12.40;;;7.97;;
26696;SDS011;14312;52.614;13.496;2023-03-01T00:38:54;11.63;;;7.63;;
26696;SDS011;14312;52.614;13.496;2023-03-01T00:41:40;12.07;;;8.00;;
26696;SDS011;14312;52.614;13.496;2023-03-01T00:44:27;12.37;;;7.27;;
26696;SDS011;14312;52.614;13.496;2023-03-01T00:47:13;14.00;;;8.80;;
26696;SDS011;14312;52.614;13.496;2023-03-01T00:49:59;13.70;;;8.93;;
26696;SDS011;14312;52.614;13.496;2023-03-01T00:52:45;13.10;;;8.47;;
26696;SDS011;14312;52.614;13.496;2023-03-01T00:55:32;13.73;;;9.10;;
26696;SDS011;14312;52.614;13.496;2023-03-01T00:58:18;12.13;;;8.43;;
26696;SDS011;14312;52.614;13.496;2023-03-01T01:01:11;14.07;;;9.03;;
26696;SDS011;14312;52.614;13.496;2023-03-01T01:04:05;12.67;;;8.10;;
26696;SDS011;14312;52.614;13.496;2023-03-01T01:06:53;12.67;;;8.13;;
26696;SDS011;14312;52.614;13.496;2023-03-01T01:09:39;12.97;;;8.30;;
26696;SDS011;14312;52.614;13.496;2023-03-01T01:12:25;11.83;;;8.43;;
26696;SDS011;14312;52.614;13.496;2023-03-01T01:15:12;12.30;;;7.70;;
26696;SDS011;14312;52.614;13.496;2023-03-01T01:17:59;11.30;;;8.30;;
26696;SDS011;14312;52.614;13.496;2023-03-01T01:20:46;10.97;;;8.20;;
26696;SDS011;14312;52.614;13.496;2023-03-01T01:23:32;10.53;;;7.70;;
26696;SDS011;14312;52.614;13.496;2023-03-01T01:26:20;13.47;;;8.30;;
26696;SDS011;14312;52.614;13.496;2023-03-01T01:29:09;13.00;;;8.23;;
26696;SDS011;14312;52.614;13.496;2023-03-01T01:31:56;12.07;;;8.17;;
26696;SDS011;14312;52.614;13.496;2023-03-01T01:34:42;11.80;;;8.30;;
26696;SDS011;14312;52.614;13.496;2023-03-01T01:37:28;12.00;;;7.70;;
26696;SDS011;14312;52.614;13.496;2023-03-01T01:40:16;11.00;;;7.87;;
26696;SDS011;14312;52.614;13.496;2023-03-01T01:43:02;10.53;;;8.20;;
26696;SDS011;14312;52.614;13.496;2023-03-01T01:45:48;12.73;;;8.10;;
26696;SDS011;14312;52.614;13.496;2023-03-01T01:48:39;12.63;;;8.20;;
26696;SDS011;14312;52.614;13.496;2023-03-01T01:51:37;11.67;;;8.03;;
26696;SDS011;14312;52.614;13.496;2023-03-01T01:54:31;11.63;;;7.47;;
26696;SDS011;14312;52.614;13.496;2023-03-01T01:57:40;11.23;;;7.63;;
26696;SDS011;14312;52.614;13.496;2023-03-01T02:00:29;10.93;;;7.47;;
26696;SDS011;14312;52.614;13.496;2023-03-01T02:03:21;10.93;;;7.90;;
26696;SDS011;14312;52.614;13.496;2023-03-01T02:06:34;9.13;;;6.97;;
26696;SDS011;14312;52.614;13.496;2023-03-01T02:09:24;11.03;;;7.23;;
26696;SDS011;14312;52.614;13.496;2023-03-01T02:12:12;10.50;;;6.90;;
26696;SDS011;14312;52.614;13.496;2023-03-01T02:15:00;9.53;;;7.70;;
26696;SDS011;14312;52.614;13.496;2023-03-01T02:17:46;9.87;;;7.10;;
26696;SDS011;14312;52.614;13.496;2023-03-01T02:23:50;8.53;;;6.60;;
26696;SDS011;14312;52.614;13.496;2023-03-01T02:26:40;11.97;;;6.67;;
26696;SDS011;14312;52.614;13.496;2023-03-01T02:29:30;11.17;;;7.63;;
26696;SDS011;14312;52.614;13.496;2023-03-01T02:32:16;11.30;;;7.03;;
26696;SDS011;14312;52.614;13.496;2023-03-01T02:35:12;12.40;;;8.07;;
26696;SDS011;14312;52.614;13.496;2023-03-01T02:38:00;16.03;;;9.27;;
26696;SDS011;14312;52.614;13.496;2023-03-01T02:40:48;13.20;;;8.13;;
26696;SDS011;14312;52.614;13.496;2023-03-01T02:43:35;12.93;;;7.97;;
26696;SDS011;14312;52.614;13.496;2023-03-01T02:46:23;10.97;;;6.90;;
26696;SDS011;14312;52.614;13.496;2023-03-01T02:49:21;13.47;;;7.87;;
26696;SDS011;14312;52.614;13.496;2023-03-01T02:55:26;10.17;;;6.63;;
26696;SDS011;14312;52.614;13.496;2023-03-01T02:58:13;9.03;;;6.43;;
26696;SDS011;14312;52.614;13.496;2023-03-01T03:00:59;10.07;;;6.63;;
26696;SDS011;14312;52.614;13.496;2023-03-01T03:03:46;8.10;;;6.50;;
26696;SDS011;14312;52.614;13.496;2023-03-01T03:06:32;7.80;;;6.20;;
26696;SDS011;14312;52.614;13.496;2023-03-01T03:09:19;10.53;;;7.00;;
26696;SDS011;14312;52.614;13.496;2023-03-01T03:12:05;9.23;;;6.57;;
26696;SDS011;14312;52.614;13.496;2023-03-01T03:14:51;9.73;;;6.73;;
26696;SDS011;14312;52.614;13.496;2023-03-01T03:17:37;10.40;;;6.43;;
26696;SDS011;14312;52.614;13.496;2023-03-01T03:20:25;7.70;;;6.00;;
26696;SDS011;14312;52.614;13.496;2023-03-01T03:23:12;9.77;;;6.10;;
26696;SDS011;14312;52.614;13.496;2023-03-01T03:25:59;8.97;;;6.30;;
26696;SDS011;14312;52.614;13.496;2023-03-01T03:28:45;9.53;;;6.30;;
26696;SDS011;14312;52.614;13.496;2023-03-01T03:31:32;9.20;;;6.30;;
26696;SDS011;14312;52.614;13.496;2023-03-01T03:34:18;8.20;;;6.23;;
26696;SDS011;14312;52.614;13.496;2023-03-01T03:37:04;11.37;;;6.37;;
26696;SDS011;14312;52.614;13.496;2023-03-01T03:40:10;8.53;;;5.87;;
26696;SDS011;14312;52.614;13.496;2023-03-01T03:43:01;8.03;;;5.83;;
26696;SDS011;14312;52.614;13.496;2023-03-01T03:45:49;8.57;;;5.60;;
26696;SDS011;14312;52.614;13.496;2023-03-01T03:48:37;8.87;;;5.73;;
26696;SDS011;14312;52.614;13.496;2023-03-01T03:51:27;7.60;;;5.03;;
26696;SDS011;14312;52.614;13.496;2023-03-01T03:54:13;6.93;;;5.57;;
26696;SDS011;14312;52.614;13.496;2023-03-01T03:56:59;7.93;;;5.57;;
26696;SDS011;14312;52.614;13.496;2023-03-01T03:59:45;9.30;;;6.07;;
26696;SDS011;14312;52.614;13.496;2023-03-01T04:02:31;7.83;;;5.77;;
26696;SDS011;14312;52.614;13.496;2023-03-01T04:05:17;7.17;;;5.50;;
26696;SDS011;14312;52.614;13.496;2023-03-01T04:08:04;7.70;;;5.97;;
26696;SDS011;14312;52.614;13.496;2023-03-01T04:10:58;8.90;;;5.80;;
26696;SDS011;14312;52.614;13.496;2023-03-01T04:14:06;9.27;;;5.90;;
26696;SDS011;14312;52.614;13.496;2023-03-01T04:16:51;8.57;;;5.93;;
26696;SDS011;14312;52.614;13.496;2023-03-01T04:19:37;7.97;;;5.97;;
26696;SDS011;14312;52.614;13.496;2023-03-01T04:22:23;9.23;;;6.10;;
26696;SDS011;14312;52.614;13.496;2023-03-01T04:25:15;8.37;;;5.37;;
26696;SDS011;14312;52.614;13.496;2023-03-01T04:28:00;9.33;;;6.13;;
26696;SDS011;14312;52.614;13.496;2023-03-01T04:30:46;6.97;;;5.70;;
26696;SDS011;14312;52.614;13.496;2023-03-01T04:33:32;8.90;;;6.27;;
26696;SDS011;14312;52.614;13.496;2023-03-01T04:36:19;8.80;;;5.27;;
26696;SDS011;14312;52.614;13.496;2023-03-01T04:39:08;7.00;;;5.40;;
26696;SDS011;14312;52.614;13.496;2023-03-01T04:41:57;7.00;;;5.47;;
26696;SDS011;14312;52.614;13.496;2023-03-01T04:44:43;7.90;;;5.73;;
26696;SDS011;14312;52.614;13.496;2023-03-01T04:47:30;6.23;;;5.03;;
26696;SDS011;14312;52.614;13.496;2023-03-01T04:50:16;6.67;;;5.60;;
26696;SDS011;14312;52.614;13.496;2023-03-01T04:53:02;7.87;;;5.63;;
26696;SDS011;14312;52.614;13.496;2023-03-01T04:55:48;9.27;;;5.30;;
26696;SDS011;14312;52.614;13.496;2023-03-01T04:58:34;9.13;;;5.60;;
26696;SDS011;14312;52.614;13.496;2023-03-01T05:01:21;10.53;;;6.40;;
26696;SDS011;14312;52.614;13.496;2023-03-01T05:04:07;7.00;;;5.73;;
26696;SDS011;14312;52.614;13.496;2023-03-01T05:06:58;9.23;;;5.80;;
26696;SDS011;14312;52.614;13.496;2023-03-01T05:09:45;8.00;;;5.63;;
26696;SDS011;14312;52.614;13.496;2023-03-01T05:12:31;9.00;;;5.60;;
26696;SDS011;14312;52.614;13.496;2023-03-01T05:15:17;8.70;;;6.00;;
26696;SDS011;14312;52.614;13.496;2023-03-01T05:18:04;7.73;;;5.73;;
26696;SDS011;14312;52.614;13.496;2023-03-01T05:21:02;9.40;;;5.83;;
26696;SDS011;14312;52.614;13.496;2023-03-01T05:23:51;7.97;;;5.43;;
26696;SDS011;14312;52.614;13.496;2023-03-01T05:26:37;8.03;;;5.37;;
26696;SDS011;14312;52.614;13.496;2023-03-01T05:29:26;9.07;;;5.60;;
26696;SDS011;14312;52.614;13.496;2023-03-01T05:32:14;7.63;;;5.47;;
26696;SDS011;14312;52.614;13.496;2023-03-01T05:35:01;10.53;;;6.83;;
26696;SDS011;14312;52.614;13.496;2023-03-01T05:37:48;8.23;;;6.03;;
26696;SDS011;14312;52.614;13.496;2023-03-01T05:40:34;7.93;;;6.00;;
26696;SDS011;14312;52.614;13.496;2023-03-01T05:43:20;8.40;;;6.37;;
26696;SDS011;14312;52.614;13.496;2023-03-01T05:46:06;6.97;;;5.30;;
26696;SDS011;14312;52.614;13.496;2023-03-01T05:48:52;7.93;;;6.10;;
26696;SDS011;14312;52.614;13.496;2023-03-01T05:51:39;8.57;;;5.67;;
26696;SDS011;14312;52.614;13.496;2023-03-01T05:54:26;8.33;;;5.87;;
26696;SDS011;14312;52.614;13.496;2023-03-01T05:57:12;8.17;;;5.87;;
26696;SDS011;14312;52.614;13.496;2023-03-01T05:59:58;8.80;;;5.77;;
26696;SDS011;14312;52.614;13.496;2023-03-01T06:02:44;10.77;;;6.27;;
26696;SDS011;14312;52.614;13.496;2023-03-01T06:05:31;8.17;;;5.50;;
26696;SDS011;14312;52.614;13.496;2023-03-01T06:08:17;6.87;;;6.17;;
26696;SDS011;14312;52.614;13.496;2023-03-01T06:11:03;10.50;;;7.33;;
26696;SDS011;14312;52.614;13.496;2023-03-01T06:13:49;10.67;;;7.47;;
26696;SDS011;14312;52.614;13.496;2023-03-01T06:16:35;10.37;;;8.27;;
26696;SDS011;14312;52.614;13.496;2023-03-01T06:19:20;11.97;;;7.80;;
26696;SDS011;14312;52.614;13.496;2023-03-01T06:22:06;9.80;;;7.13;;
26696;SDS011;14312;52.614;13.496;2023-03-01T06:24:53;9.57;;;7.17;;
26696;SDS011;14312;52.614;13.496;2023-03-01T06:27:40;9.67;;;7.07;;
26696;SDS011;14312;52.614;13.496;2023-03-01T06:30:26;9.57;;;7.13;;
26696;SDS011;14312;52.614;13.496;2023-03-01T06:33:12;9.27;;;6.80;;
26696;SDS011;14312;52.614;13.496;2023-03-01T06:35:58;9.00;;;6.93;;
26696;SDS011;14312;52.614;13.496;2023-03-01T06:38:44;6.73;;;5.97;;
26696;SDS011;14312;52.614;13.496;2023-03-01T06:41:31;8.77;;;7.00;;
26696;SDS011;14312;52.614;13.496;2023-03-01T06:44:17;8.47;;;6.17;;
26696;SDS011;14312;52.614;13.496;2023-03-01T06:47:03;7.90;;;5.63;;
26696;SDS011;14312;52.614;13.496;2023-03-01T06:49:49;7.30;;;5.70;;
26696;SDS011;14312;52.614;13.496;2023-03-01T06:52:35;9.30;;;6.83;;
26696;SDS011;14312;52.614;13.496;2023-03-01T06:55:21;7.73;;;6.30;;
26696;SDS011;14312;52.614;13.496;2023-03-01T06:58:08;9.80;;;6.97;;
26696;SDS011;14312;52.614;13.496;2023-03-01T07:00:54;9.53;;;7.03;;
26696;SDS011;14312;52.614;13.496;2023-03-01T07:03:40;8.30;;;6.40;;
26696;SDS011;14312;52.614;13.496;2023-03-01T07:06:26;7.80;;;5.70;;
26696;SDS011;14312;52.614;13.496;2023-03-01T07:09:12;7.97;;;5.93;;
26696;SDS011;14312;52.614;13.496;2023-03-01T07:11:58;9.87;;;6.07;;
26696;SDS011;14312;52.614;13.496;2023-03-01T07:14:44;9.47;;;6.00;;
26696;SDS011;14312;52.614;13.496;2023-03-01T07:17:30;7.83;;;5.67;;
26696;SDS011;14312;52.614;13.496;2023-03-01T07:20:16;8.53;;;5.80;;
26696;SDS011;14312;52.614;13.496;2023-03-01T07:23:10;7.33;;;5.27;;
26696;SDS011;14312;52.614;13.496;2023-03-01T07:25:56;6.20;;;5.43;;
26696;SDS011;14312;52.614;13.496;2023-03-01T07:28:42;6.63;;;5.40;;
26696;SDS011;14312;52.614;13.496;2023-03-01T07:31:28;7.07;;;5.40;;
26696;SDS011;14312;52.614;13.496;2023-03-01T07:34:14;6.50;;;5.57;;
26696;SDS011;14312;52.614;13.496;2023-03-01T07:37:00;6.13;;;5.33;;
26696;SDS011;14312;52.614;13.496;2023-03-01T07:39:46;7.37;;;5.47;;
26696;SDS011;14312;52.614;13.496;2023-03-01T07:42:32;6.47;;;5.60;;
26696;SDS011;14312;52.614;13.496;2023-03-01T07:45:17;6.77;;;5.43;;
26696;SDS011;14312;52.614;13.496;2023-03-01T07:48:03;8.17;;;5.83;;
26696;SDS011;14312;52.614;13.496;2023-03-01T07:50:50;7.60;;;5.47;;
26696;SDS011;14312;52.614;13.496;2023-03-01T07:53:37;8.00;;;6.00;;
26696;SDS011;14312;52.614;13.496;2023-03-01T07:56:23;7.13;;;5.87;;
26696;SDS011;14312;52.614;13.496;2023-03-01T07:59:09;8.00;;;5.80;;
26696;SDS011;14312;52.614;13.496;2023-03-01T08:01:56;7.30;;;5.80;;
26696;SDS011;14312;52.614;13.496;2023-03-01T08:04:42;9.37;;;6.20;;
26696;SDS011;14312;52.614;13.496;2023-03-01T08:07:28;7.70;;;5.90;;
26696;SDS011;14312;52.614;13.496;2023-03-01T08:10:14;7.77;;;6.53;;
26696;SDS011;14312;52.614;13.496;2023-03-01T08:13:00;7.43;;;6.63;;
26696;SDS011;14312;52.614;13.496;2023-03-01T08:15:46;7.50;;;6.30;;
26696;SDS011;14312;52.614;13.496;2023-03-01T08:18:32;9.02;;;6.55;;
26696;SDS011;14312;52.614;13.496;2023-03-01T08:21:18;7.85;;;6.25;;
26696;SDS011;14312;52.614;13.496;2023-03-01T08:24:04;7.10;;;5.22;;
26696;SDS011;14312;52.614;13.496;2023-03-01T08:26:51;7.38;;;5.70;;
26696;SDS011;14312;52.614;13.496;2023-03-01T08:29:37;5.60;;;4.75;;
26696;SDS011;14312;52.614;13.496;2023-03-01T08:32:23;5.20;;;4.03;;
26696;SDS011;14312;52.614;13.496;2023-03-01T08:35:09;4.88;;;4.38;;
26696;SDS011;14312;52.614;13.496;2023-03-01T08:37:56;5.78;;;3.97;;
26696;SDS011;14312;52.614;13.496;2023-03-01T08:40:43;5.75;;;4.03;;
26696;SDS011;14312;52.614;13.496;2023-03-01T08:43:29;4.50;;;3.80;;
26696;SDS011;14312;52.614;13.496;2023-03-01T08:46:15;3.67;;;3.35;;
26696;SDS011;14312;52.614;13.496;2023-03-01T08:49:05;4.72;;;3.45;;
26696;SDS011;14312;52.614;13.496;2023-03-01T08:51:53;4.32;;;3.40;;
26696;SDS011;14312;52.614;13.496;2023-03-01T08:54:39;4.05;;;2.90;;
26696;SDS011;14312;52.614;13.496;2023-03-01T08:57:25;3.13;;;2.63;;
26696;SDS011;14312;52.614;13.496;2023-03-01T09:00:11;4.45;;;2.75;;
26696;SDS011;14312;52.614;13.496;2023-03-01T09:03:00;5.05;;;3.08;;
26696;SDS011;14312;52.614;13.496;2023-03-01T09:05:46;3.53;;;2.85;;
26696;SDS011;14312;52.614;13.496;2023-03-01T09:08:39;2.67;;;2.47;;
26696;SDS011;14312;52.614;13.496;2023-03-01T09:11:27;4.13;;;2.80;;
26696;SDS011;14312;52.614;13.496;2023-03-01T09:14:13;3.17;;;2.42;;
26696;SDS011;14312;52.614;13.496;2023-03-01T09:17:00;2.88;;;2.30;;
26696;SDS011;14312;52.614;13.496;2023-03-01T09:19:48;3.00;;;2.45;;
26696;SDS011;14312;52.614;13.496;2023-03-01T09:22:34;2.65;;;2.08;;
26696;SDS011;14312;52.614;13.496;2023-03-01T09:25:20;2.65;;;2.20;;
26696;SDS011;14312;52.614;13.496;2023-03-01T09:28:06;2.63;;;2.30;;
26696;SDS011;14312;52.614;13.496;2023-03-01T09:30:52;2.75;;;2.00;;
26696;SDS011;14312;52.614;13.496;2023-03-01T09:33:39;2.00;;;1.80;;
26696;SDS011;14312;52.614;13.496;2023-03-01T09:36:26;2.95;;;1.80;;
26696;SDS011;14312;52.614;13.496;2023-03-01T09:39:12;2.20;;;2.00;;
26696;SDS011;14312;52.614;13.496;2023-03-01T09:41:59;2.50;;;1.63;;
26696;SDS011;14312;52.614;13.496;2023-03-01T09:44:48;1.77;;;1.67;;
26696;SDS011;14312;52.614;13.496;2023-03-01T09:47:37;2.15;;;1.60;;
26696;SDS011;14312;52.614;13.496;2023-03-01T09:50:23;4.10;;;2.05;;
26696;SDS011;14312;52.614;13.496;2023-03-01T09:53:21;1.80;;;1.50;;
26696;SDS011;14312;52.614;13.496;2023-03-01T10:02:24;1.90;;;1.70;;
26696;SDS011;14312;52.614;13.496;2023-03-01T10:11:26;2.22;;;1.88;;
26696;SDS011;14312;52.614;13.496;2023-03-01T10:17:28;2.50;;;1.75;;
26696;SDS011;14312;52.614;13.496;2023-03-01T10:20:23;2.28;;;1.73;;
26696;SDS011;14312;52.614;13.496;2023-03-01T10:23:10;1.70;;;1.60;;
26696;SDS011;14312;52.614;13.496;2023-03-01T10:29:16;1.83;;;1.60;;
26696;SDS011;14312;52.614;13.496;2023-03-01T10:32:02;1.92;;;1.60;;
26696;SDS011;14312;52.614;13.496;2023-03-01T10:34:50;1.98;;;1.50;;
26696;SDS011;14312;52.614;13.496;2023-03-01T10:37:36;1.35;;;1.25;;
26696;SDS011;14312;52.614;13.496;2023-03-01T10:43:48;1.90;;;1.55;;
26696;SDS011;14312;52.614;13.496;2023-03-01T10:46:42;1.65;;;1.55;;
26696;SDS011;14312;52.614;13.496;2023-03-01T10:49:28;1.50;;;1.40;;
26696;SDS011;14312;52.614;13.496;2023-03-01T10:52:21;1.45;;;1.30;;
26696;SDS011;14312;52.614;13.496;2023-03-01T10:58:17;3.47;;;2.30;;
26696;SDS011;14312;52.614;13.496;2023-03-01T11:01:06;2.50;;;2.22;;
26696;SDS011;14312;52.614;13.496;2023-03-01T11:04:11;2.72;;;2.17;;
26696;SDS011;14312;52.614;13.496;2023-03-01T11:06:59;3.00;;;2.70;;
26696;SDS011;14312;52.614;13.496;2023-03-01T11:09:47;4.07;;;2.60;;
26696;SDS011;14312;52.614;13.496;2023-03-01T11:12:33;3.45;;;2.53;;
26696;SDS011;14312;52.614;13.496;2023-03-01T11:15:25;3.45;;;2.53;;
26696;SDS011;14312;52.614;13.496;2023-03-01T11:18:19;2.40;;;2.20;;
26696;SDS011;14312;52.614;13.496;2023-03-01T11:21:06;2.20;;;1.90;;
26696;SDS011;14312;52.614;13.496;2023-03-01T11:23:54;3.33;;;2.38;;
26696;SDS011;14312;52.614;13.496;2023-03-01T11:26:40;2.63;;;2.20;;
26696;SDS011;14312;52.614;13.496;2023-03-01T11:29:37;2.50;;;1.98;;
26696;SDS011;14312;52.614;13.496;2023-03-01T11:32:28;2.50;;;1.98;;
26696;SDS011;14312;52.614;13.496;2023-03-01T11:35:23;2.70;;;1.90;;
26696;SDS011;14312;52.614;13.496;2023-03-01T11:38:15;2.17;;;1.83;;
26696;SDS011;14312;52.614;13.496;2023-03-01T11:41:08;2.47;;;1.90;;
26696;SDS011;14312;52.614;13.496;2023-03-01T11:44:10;2.10;;;1.92;;
26696;SDS011;14312;52.614;13.496;2023-03-01T11:59:40;2.97;;;2.30;;
26696;SDS011;14312;52.614;13.496;2023-03-01T12:02:54;2.17;;;1.88;;
26696;SDS011;14312;52.614;13.496;2023-03-01T12:14:47;2.47;;;1.92;;
26696;SDS011;14312;52.614;13.496;2023-03-01T12:17:47;1.90;;;1.80;;
26696;SDS011;14312;52.614;13.496;2023-03-01T12:23:54;1.73;;;1.55;;
26696;SDS011;14312;52.614;13.496;2023-03-01T12:27:09;2.13;;;1.90;;
26696;SDS011;14312;52.614;13.496;2023-03-01T12:33:41;2.17;;;1.98;;
26696;SDS011;14312;52.614;13.496;2023-03-01T12:36:52;2.33;;;1.98;;
26696;SDS011;14312;52.614;13.496;2023-03-01T12:39:56;2.92;;;2.35;;
26696;SDS011;14312;52.614;13.496;2023-03-01T12:43:19;2.15;;;1.95;;
26696;SDS011;14312;52.614;13.496;2023-03-01T12:49:40;2.00;;;1.80;;
26696;SDS011;14312;52.614;13.496;2023-03-01T12:52:39;1.60;;;1.50;;
26696;SDS011;14312;52.614;13.496;2023-03-01T12:55:39;1.95;;;1.50;;
26696;SDS011;14312;52.614;13.496;2023-03-01T13:08:19;2.17;;;1.88;;
26696;SDS011;14312;52.614;13.496;2023-03-01T13:11:20;2.80;;;1.73;;
26696;SDS011;14312;52.614;13.496;2023-03-01T13:17:07;2.47;;;1.90;;
26696;SDS011;14312;52.614;13.496;2023-03-01T13:20:17;1.70;;;1.60;;
26696;SDS011;14312;52.614;13.496;2023-03-01T13:23:10;2.00;;;1.73;;
26696;SDS011;14312;52.614;13.496;2023-03-01T13:37:35;2.30;;;2.10;;
26696;SDS011;14312;52.614;13.496;2023-03-01T13:43:29;1.70;;;1.60;;
26696;SDS011;14312;52.614;13.496;2023-03-01T13:46:23;1.85;;;1.75;;
26696;SDS011;14312;52.614;13.496;2023-03-01T13:49:11;2.33;;;1.52;;
26696;SDS011;14312;52.614;13.496;2023-03-01T13:52:01;2.03;;;1.83;;
26696;SDS011;14312;52.614;13.496;2023-03-01T13:54:47;1.48;;;1.38;;
26696;SDS011;14312;52.614;13.496;2023-03-01T13:57:34;1.58;;;1.48;;
26696;SDS011;14312;52.614;13.496;2023-03-01T14:05:59;1.73;;;1.63;;
26696;SDS011;14312;52.614;13.496;2023-03-01T14:08:47;2.10;;;1.90;;
26696;SDS011;14312;52.614;13.496;2023-03-01T14:17:40;2.40;;;1.40;;
26696;SDS011;14312;52.614;13.496;2023-03-01T14:20:31;1.70;;;1.60;;
26696;SDS011;14312;52.614;13.496;2023-03-01T14:23:23;2.70;;;1.73;;
26696;SDS011;14312;52.614;13.496;2023-03-01T14:26:09;2.15;;;1.92;;
26696;SDS011;14312;52.614;13.496;2023-03-01T14:28:57;2.30;;;2.10;;
26696;SDS011;14312;52.614;13.496;2023-03-01T14:31:43;2.30;;;2.10;;
26696;SDS011;14312;52.614;13.496;2023-03-01T14:34:29;2.03;;;1.70;;
26696;SDS011;14312;52.614;13.496;2023-03-01T14:37:25;1.70;;;1.60;;
26696;SDS011;14312;52.614;13.496;2023-03-01T14:40:33;2.45;;;1.40;;
26696;SDS011;14312;52.614;13.496;2023-03-01T14:43:22;1.60;;;1.50;;
26696;SDS011;14312;52.614;13.496;2023-03-01T14:46:24;1.67;;;1.58;;
26696;SDS011;14312;52.614;13.496;2023-03-01T14:52:04;2.17;;;1.67;;
26696;SDS011;14312;52.614;13.496;2023-03-01T14:54:52;1.67;;;1.58;;
26696;SDS011;14312;52.614;13.496;2023-03-01T14:57:42;1.83;;;1.48;;
26696;SDS011;14312;52.614;13.496;2023-03-01T15:00:30;1.45;;;1.25;;
26696;SDS011;14312;52.614;13.496;2023-03-01T15:03:25;1.70;;;1.58;;
26696;SDS011;14312;52.614;13.496;2023-03-01T15:06:17;1.60;;;1.50;;
26696;SDS011;14312;52.614;13.496;2023-03-01T15:09:05;1.48;;;1.38;;
26696;SDS011;14312;52.614;13.496;2023-03-01T15:11:56;1.90;;;1.70;;
26696;SDS011;14312;52.614;13.496;2023-03-01T15:14:42;1.40;;;1.30;;
26696;SDS011;14312;52.614;13.496;2023-03-01T15:17:36;1.42;;;1.33;;
26696;SDS011;14312;52.614;13.496;2023-03-01T15:20:24;1.48;;;1.33;;
26696;SDS011;14312;52.614;13.496;2023-03-01T15:26:20;1.40;;;1.30;;
26696;SDS011;14312;52.614;13.496;2023-03-01T15:29:18;2.00;;;1.30;;
26696;SDS011;14312;52.614;13.496;2023-03-01T15:38:50;3.05;;;1.80;;
26696;SDS011;14312;52.614;13.496;2023-03-01T15:41:46;1.90;;;1.80;;
26696;SDS011;14312;52.614;13.496;2023-03-01T15:44:35;1.85;;;1.70;;
26696;SDS011;14312;52.614;13.496;2023-03-01T15:47:39;1.75;;;1.48;;
26696;SDS011;14312;52.614;13.496;2023-03-01T15:50:29;1.77;;;1.67;;
26696;SDS011;14312;52.614;13.496;2023-03-01T15:53:21;1.50;;;1.40;;
26696;SDS011;14312;52.614;13.496;2023-03-01T15:56:07;2.05;;;1.52;;
26696;SDS011;14312;52.614;13.496;2023-03-01T15:58:56;1.58;;;1.48;;
26696;SDS011;14312;52.614;13.496;2023-03-01T16:01:44;2.42;;;2.00;;
26696;SDS011;14312;52.614;13.496;2023-03-01T16:04:30;2.78;;;2.38;;
26696;SDS011;14312;52.614;13.496;2023-03-01T16:07:16;2.95;;;2.00;;
26696;SDS011;14312;52.614;13.496;2023-03-01T16:10:02;2.28;;;1.77;;
26696;SDS011;14312;52.614;13.496;2023-03-01T16:12:49;1.55;;;1.30;;
26696;SDS011;14312;52.614;13.496;2023-03-01T16:15:37;1.67;;;1.52;;
26696;SDS011;14312;52.614;13.496;2023-03-01T16:18:25;2.80;;;1.50;;
26696;SDS011;14312;52.614;13.496;2023-03-01T16:21:14;1.60;;;1.40;;
26696;SDS011;14312;52.614;13.496;2023-03-01T16:24:05;2.88;;;1.70;;
26696;SDS011;14312;52.614;13.496;2023-03-01T16:26:51;1.80;;;1.70;;
26696;SDS011;14312;52.614;13.496;2023-03-01T16:29:37;2.67;;;1.60;;
26696;SDS011;14312;52.614;13.496;2023-03-01T16:32:23;1.88;;;1.70;;
26696;SDS011;14312;52.614;13.496;2023-03-01T16:35:10;2.75;;;1.63;;
26696;SDS011;14312;52.614;13.496;2023-03-01T16:37:58;3.20;;;1.80;;
26696;SDS011;14312;52.614;13.496;2023-03-01T16:40:48;1.63;;;1.52;;
26696;SDS011;14312;52.614;13.496;2023-03-01T16:43:36;1.98;;;1.77;;
26696;SDS011;14312;52.614;13.496;2023-03-01T16:46:23;2.88;;;1.73;;
26696;SDS011;14312;52.614;13.496;2023-03-01T16:49:13;3.03;;;1.90;;
26696;SDS011;14312;52.614;13.496;2023-03-01T16:51:59;2.45;;;1.80;;
26696;SDS011;14312;52.614;13.496;2023-03-01T16:54:45;2.08;;;1.88;;
26696;SDS011;14312;52.614;13.496;2023-03-01T16:57:33;2.15;;;1.92;;
26696;SDS011;14312;52.614;13.496;2023-03-01T17:00:20;2.47;;;1.92;;
26696;SDS011;14312;52.614;13.496;2023-03-01T17:03:06;3.55;;;1.80;;
26696;SDS011;14312;52.614;13.496;2023-03-01T17:05:52;2.53;;;2.05;;
26696;SDS011;14312;52.614;13.496;2023-03-01T17:08:38;2.95;;;2.00;;
26696;SDS011;14312;52.614;13.496;2023-03-01T17:11:24;3.92;;;2.28;;
26696;SDS011;14312;52.614;13.496;2023-03-01T17:14:10;2.58;;;2.15;;
26696;SDS011;14312;52.614;13.496;2023-03-01T17:16:56;3.65;;;3.10;;
26696;SDS011;14312;52.614;13.496;2023-03-01T17:19:42;5.10;;;3.30;;
26696;SDS011;14312;52.614;13.496;2023-03-01T17:22:29;3.20;;;2.90;;
26696;SDS011;14312;52.614;13.496;2023-03-01T17:25:14;2.80;;;2.50;;
26696;SDS011;14312;52.614;13.496;2023-03-01T17:28:00;2.28;;;2.08;;
26696;SDS011;14312;52.614;13.496;2023-03-01T17:30:46;2.50;;;2.28;;
26696;SDS011;14312;52.614;13.496;2023-03-01T17:33:33;2.78;;;2.38;;
26696;SDS011;14312;52.614;13.496;2023-03-01T17:36:19;3.35;;;2.40;;
26696;SDS011;14312;52.614;13.496;2023-03-01T17:39:05;3.50;;;2.90;;
26696;SDS011;14312;52.614;13.496;2023-03-01T17:41:51;3.58;;;3.28;;
26696;SDS011;14312;52.614;13.496;2023-03-01T17:44:37;4.40;;;3.47;;
26696;SDS011;14312;52.614;13.496;2023-03-01T17:47:23;5.43;;;3.47;;
26696;SDS011;14312;52.614;13.496;2023-03-01T17:50:11;4.75;;;3.80;;
26696;SDS011;14312;52.614;13.496;2023-03-01T17:52:57;4.82;;;3.58;;
26696;SDS011;14312;52.614;13.496;2023-03-01T17:55:43;4.18;;;3.47;;
26696;SDS011;14312;52.614;13.496;2023-03-01T17:58:30;3.75;;;3.17;;
26696;SDS011;14312;52.614;13.496;2023-03-01T18:01:18;3.10;;;2.83;;
26696;SDS011;14312;52.614;13.496;2023-03-01T18:04:05;3.47;;;2.92;;
26696;SDS011;14312;52.614;13.496;2023-03-01T18:06:51;3.92;;;3.10;;
26696;SDS011;14312;52.614;13.496;2023-03-01T18:09:37;4.60;;;3.53;;
26696;SDS011;14312;52.614;13.496;2023-03-01T18:12:22;5.65;;;3.83;;
26696;SDS011;14312;52.614;13.496;2023-03-01T18:15:08;6.18;;;4.03;;
26696;SDS011;14312;52.614;13.496;2023-03-01T18:17:55;5.53;;;4.10;;
26696;SDS011;14312;52.614;13.496;2023-03-01T18:20:41;5.53;;;3.47;;
26696;SDS011;14312;52.614;13.496;2023-03-01T18:23:27;4.95;;;4.10;;
26696;SDS011;14312;52.614;13.496;2023-03-01T18:26:14;4.28;;;3.45;;
26696;SDS011;14312;52.614;13.496;2023-03-01T18:29:02;6.35;;;4.32;;
26696;SDS011;14312;52.614;13.496;2023-03-01T18:31:49;6.07;;;3.75;;
26696;SDS011;14312;52.614;13.496;2023-03-01T18:34:35;5.30;;;4.10;;